sensor_id;sensor_type;location;lat;lon;timestamp;P1;durP1;ratioP1;P2;durP2;ratioP2
51556;SDS011;38766;53.194;5.532;2024-01-11T00:01:19;24.00;;;13.35;;
51556;SDS011;38766;53.194;5.532;2024-01-11T00:03:45;25.17;;;13.38;;
51556;SDS011;38766;53.194;5.532;2024-01-11T00:06:10;26.92;;;14.65;;
51556;SDS011;38766;53.194;5.532;2024-01-11T00:08:36;29.08;;;14.98;;
51556;SDS011;38766;53.194;5.532;2024-01-11T00:11:02;23.55;;;13.35;;
51556;SDS011;38766;53.194;5.532;2024-01-11T00:13:28;25.38;;;13.48;;
51556;SDS011;38766;53.194;5.532;2024-01-11T00:15:54;24.75;;;14.80;;
51556;SDS011;38766;53.194;5.532;2024-01-11T00:18:19;28.27;;;14.70;;
51556;SDS011;38766;53.194;5.532;2024-01-11T00:20:45;25.85;;;15.35;;
51556;SDS011;38766;53.194;5.532;2024-01-11T00:23:11;24.63;;;14.60;;
51556;SDS011;38766;53.194;5.532;2024-01-11T00:25:36;24.85;;;13.77;;
51556;SDS011;38766;53.194;5.532;2024-01-11T00:28:02;28.67;;;15.07;;
51556;SDS011;38766;53.194;5.532;2024-01-11T00:30:28;26.90;;;14.48;;
51556;SDS011;38766;53.194;5.532;2024-01-11T00:32:54;26.52;;;15.27;;
51556;SDS011;38766;53.194;5.532;2024-01-11T00:35:20;26.17;;;14.93;;
51556;SDS011;38766;53.194;5.532;2024-01-11T00:37:46;25.73;;;14.68;;
51556;SDS011;38766;53.194;5.532;2024-01-11T00:40:11;29.00;;;16.17;;
51556;SDS011;38766;53.194;5.532;2024-01-11T00:42:37;27.60;;;15.10;;
51556;SDS011;38766;53.194;5.532;2024-01-11T00:45:02;29.52;;;16.30;;
51556;SDS011;38766;53.194;5.532;2024-01-11T00:47:29;26.42;;;14.30;;
51556;SDS011;38766;53.194;5.532;2024-01-11T00:49:54;26.38;;;15.82;;
51556;SDS011;38766;53.194;5.532;2024-01-11T00:52:20;30.42;;;15.32;;
51556;SDS011;38766;53.194;5.532;2024-01-11T00:54:46;30.90;;;15.85;;
51556;SDS011;38766;53.194;5.532;2024-01-11T00:57:11;28.33;;;15.98;;
51556;SDS011;38766;53.194;5.532;2024-01-11T00:59:37;28.67;;;15.82;;
51556;SDS011;38766;53.194;5.532;2024-01-11T01:02:04;29.83;;;15.65;;
51556;SDS011;38766;53.194;5.532;2024-01-11T01:04:30;29.42;;;16.25;;
51556;SDS011;38766;53.194;5.532;2024-01-11T01:06:56;25.80;;;14.95;;
51556;SDS011;38766;53.194;5.532;2024-01-11T01:09:22;28.00;;;15.85;;
51556;SDS011;38766;53.194;5.532;2024-01-11T01:11:48;29.27;;;15.75;;
51556;SDS011;38766;53.194;5.532;2024-01-11T01:14:13;28.92;;;15.60;;
51556;SDS011;38766;53.194;5.532;2024-01-11T01:16:39;31.50;;;16.38;;
51556;SDS011;38766;53.194;5.532;2024-01-11T01:19:05;27.80;;;15.82;;
51556;SDS011;38766;53.194;5.532;2024-01-11T01:21:30;30.17;;;16.15;;
51556;SDS011;38766;53.194;5.532;2024-01-11T01:23:56;27.52;;;15.63;;
51556;SDS011;38766;53.194;5.532;2024-01-11T01:26:22;29.98;;;16.77;;
51556;SDS011;38766;53.194;5.532;2024-01-11T01:28:47;27.42;;;14.70;;
51556;SDS011;38766;53.194;5.532;2024-01-11T01:31:13;30.90;;;16.85;;
51556;SDS011;38766;53.194;5.532;2024-01-11T01:33:42;29.48;;;17.02;;
51556;SDS011;38766;53.194;5.532;2024-01-11T01:36:09;29.98;;;17.17;;
51556;SDS011;38766;53.194;5.532;2024-01-11T01:38:35;30.50;;;16.70;;
51556;SDS011;38766;53.194;5.532;2024-01-11T01:41:00;29.15;;;16.00;;
51556;SDS011;38766;53.194;5.532;2024-01-11T01:43:28;30.08;;;16.50;;
51556;SDS011;38766;53.194;5.532;2024-01-11T01:45:54;33.45;;;17.17;;
51556;SDS011;38766;53.194;5.532;2024-01-11T01:48:20;32.88;;;16.73;;
51556;SDS011;38766;53.194;5.532;2024-01-11T01:50:47;28.35;;;16.00;;
51556;SDS011;38766;53.194;5.532;2024-01-11T01:53:21;28.85;;;16.73;;
51556;SDS011;38766;53.194;5.532;2024-01-11T01:55:49;32.22;;;17.50;;
51556;SDS011;38766;53.194;5.532;2024-01-11T01:58:17;31.30;;;17.23;;
51556;SDS011;38766;53.194;5.532;2024-01-11T02:00:44;30.15;;;16.48;;
51556;SDS011;38766;53.194;5.532;2024-01-11T02:03:10;34.17;;;17.65;;
51556;SDS011;38766;53.194;5.532;2024-01-11T02:05:37;29.73;;;17.25;;
51556;SDS011;38766;53.194;5.532;2024-01-11T02:08:03;32.00;;;16.92;;
51556;SDS011;38766;53.194;5.532;2024-01-11T02:10:33;31.40;;;16.52;;
51556;SDS011;38766;53.194;5.532;2024-01-11T02:13:00;29.27;;;16.80;;
51556;SDS011;38766;53.194;5.532;2024-01-11T02:15:26;31.35;;;16.50;;
51556;SDS011;38766;53.194;5.532;2024-01-11T02:17:51;32.38;;;18.05;;
51556;SDS011;38766;53.194;5.532;2024-01-11T02:20:17;31.75;;;16.65;;
51556;SDS011;38766;53.194;5.532;2024-01-11T02:22:45;29.10;;;16.50;;
51556;SDS011;38766;53.194;5.532;2024-01-11T02:25:14;31.40;;;17.85;;
51556;SDS011;38766;53.194;5.532;2024-01-11T02:27:46;33.78;;;18.15;;
51556;SDS011;38766;53.194;5.532;2024-01-11T02:30:13;32.65;;;17.45;;
51556;SDS011;38766;53.194;5.532;2024-01-11T02:32:39;33.58;;;17.00;;
51556;SDS011;38766;53.194;5.532;2024-01-11T02:35:05;34.70;;;17.85;;
51556;SDS011;38766;53.194;5.532;2024-01-11T02:37:31;35.13;;;18.05;;
51556;SDS011;38766;53.194;5.532;2024-01-11T02:39:57;31.75;;;17.13;;
51556;SDS011;38766;53.194;5.532;2024-01-11T02:42:23;32.40;;;17.73;;
51556;SDS011;38766;53.194;5.532;2024-01-11T02:44:49;33.47;;;16.90;;
51556;SDS011;38766;53.194;5.532;2024-01-11T02:47:14;35.75;;;17.73;;
51556;SDS011;38766;53.194;5.532;2024-01-11T02:49:40;35.38;;;18.67;;
51556;SDS011;38766;53.194;5.532;2024-01-11T02:52:06;30.77;;;16.55;;
51556;SDS011;38766;53.194;5.532;2024-01-11T02:54:31;34.72;;;18.30;;
51556;SDS011;38766;53.194;5.532;2024-01-11T02:56:57;34.38;;;17.88;;
51556;SDS011;38766;53.194;5.532;2024-01-11T02:59:23;34.47;;;18.15;;
51556;SDS011;38766;53.194;5.532;2024-01-11T03:01:49;36.28;;;18.70;;
51556;SDS011;38766;53.194;5.532;2024-01-11T03:04:14;33.63;;;19.38;;
51556;SDS011;38766;53.194;5.532;2024-01-11T03:06:40;34.22;;;18.48;;
51556;SDS011;38766;53.194;5.532;2024-01-11T03:09:06;32.72;;;16.80;;
51556;SDS011;38766;53.194;5.532;2024-01-11T03:11:32;37.67;;;18.17;;
51556;SDS011;38766;53.194;5.532;2024-01-11T03:13:57;32.08;;;18.00;;
51556;SDS011;38766;53.194;5.532;2024-01-11T03:16:23;34.40;;;18.25;;
51556;SDS011;38766;53.194;5.532;2024-01-11T03:18:48;32.28;;;18.80;;
51556;SDS011;38766;53.194;5.532;2024-01-11T03:21:14;35.60;;;18.90;;
51556;SDS011;38766;53.194;5.532;2024-01-11T03:23:40;34.30;;;18.50;;
51556;SDS011;38766;53.194;5.532;2024-01-11T03:26:12;31.65;;;17.88;;
51556;SDS011;38766;53.194;5.532;2024-01-11T03:28:41;33.88;;;18.40;;
51556;SDS011;38766;53.194;5.532;2024-01-11T03:31:07;29.33;;;16.52;;
51556;SDS011;38766;53.194;5.532;2024-01-11T03:33:34;31.30;;;17.77;;
51556;SDS011;38766;53.194;5.532;2024-01-11T03:36:00;29.77;;;16.30;;
51556;SDS011;38766;53.194;5.532;2024-01-11T03:38:31;34.30;;;17.52;;
51556;SDS011;38766;53.194;5.532;2024-01-11T03:40:57;32.55;;;18.25;;
51556;SDS011;38766;53.194;5.532;2024-01-11T03:43:23;33.17;;;17.70;;
51556;SDS011;38766;53.194;5.532;2024-01-11T03:45:48;32.03;;;18.00;;
51556;SDS011;38766;53.194;5.532;2024-01-11T03:48:14;32.15;;;17.45;;
51556;SDS011;38766;53.194;5.532;2024-01-11T03:50:39;34.10;;;18.48;;
51556;SDS011;38766;53.194;5.532;2024-01-11T03:53:05;33.70;;;18.40;;
51556;SDS011;38766;53.194;5.532;2024-01-11T03:55:31;34.35;;;17.95;;
51556;SDS011;38766;53.194;5.532;2024-01-11T03:57:56;32.72;;;17.38;;
51556;SDS011;38766;53.194;5.532;2024-01-11T04:00:22;33.38;;;17.63;;
51556;SDS011;38766;53.194;5.532;2024-01-11T04:02:47;34.63;;;20.05;;
51556;SDS011;38766;53.194;5.532;2024-01-11T04:05:13;33.42;;;17.83;;
51556;SDS011;38766;53.194;5.532;2024-01-11T04:07:40;33.67;;;17.27;;
51556;SDS011;38766;53.194;5.532;2024-01-11T04:10:06;37.08;;;18.60;;
51556;SDS011;38766;53.194;5.532;2024-01-11T04:12:33;35.65;;;17.77;;
51556;SDS011;38766;53.194;5.532;2024-01-11T04:14:59;31.30;;;16.90;;
51556;SDS011;38766;53.194;5.532;2024-01-11T04:17:24;32.55;;;17.50;;
51556;SDS011;38766;53.194;5.532;2024-01-11T04:19:50;31.88;;;17.98;;
51556;SDS011;38766;53.194;5.532;2024-01-11T04:22:15;33.75;;;18.65;;
51556;SDS011;38766;53.194;5.532;2024-01-11T04:24:41;34.40;;;18.38;;
51556;SDS011;38766;53.194;5.532;2024-01-11T04:27:07;34.75;;;17.92;;
51556;SDS011;38766;53.194;5.532;2024-01-11T04:29:33;34.72;;;18.70;;
51556;SDS011;38766;53.194;5.532;2024-01-11T04:31:59;38.90;;;19.00;;
51556;SDS011;38766;53.194;5.532;2024-01-11T04:34:24;37.47;;;19.38;;
51556;SDS011;38766;53.194;5.532;2024-01-11T04:36:50;37.20;;;19.27;;
51556;SDS011;38766;53.194;5.532;2024-01-11T04:39:15;37.47;;;18.48;;
51556;SDS011;38766;53.194;5.532;2024-01-11T04:41:41;35.63;;;18.58;;
51556;SDS011;38766;53.194;5.532;2024-01-11T04:44:06;35.38;;;17.67;;
51556;SDS011;38766;53.194;5.532;2024-01-11T04:46:32;34.92;;;18.95;;
51556;SDS011;38766;53.194;5.532;2024-01-11T04:48:58;37.47;;;19.30;;
51556;SDS011;38766;53.194;5.532;2024-01-11T04:51:23;34.67;;;18.40;;
51556;SDS011;38766;53.194;5.532;2024-01-11T04:53:49;43.10;;;20.73;;
51556;SDS011;38766;53.194;5.532;2024-01-11T04:56:15;34.60;;;18.35;;
51556;SDS011;38766;53.194;5.532;2024-01-11T04:58:42;33.90;;;18.75;;
51556;SDS011;38766;53.194;5.532;2024-01-11T05:01:14;36.67;;;19.00;;
51556;SDS011;38766;53.194;5.532;2024-01-11T05:03:42;39.25;;;19.88;;
51556;SDS011;38766;53.194;5.532;2024-01-11T05:06:08;35.13;;;18.25;;
51556;SDS011;38766;53.194;5.532;2024-01-11T05:08:43;39.10;;;20.20;;
51556;SDS011;38766;53.194;5.532;2024-01-11T05:11:23;38.08;;;19.77;;
51556;SDS011;38766;53.194;5.532;2024-01-11T05:13:49;40.92;;;19.50;;
51556;SDS011;38766;53.194;5.532;2024-01-11T05:16:19;40.53;;;20.08;;
51556;SDS011;38766;53.194;5.532;2024-01-11T05:18:46;37.33;;;18.73;;
51556;SDS011;38766;53.194;5.532;2024-01-11T05:21:11;40.22;;;19.60;;
51556;SDS011;38766;53.194;5.532;2024-01-11T05:23:37;37.75;;;19.52;;
51556;SDS011;38766;53.194;5.532;2024-01-11T05:26:03;39.17;;;19.88;;
51556;SDS011;38766;53.194;5.532;2024-01-11T05:28:28;37.78;;;18.50;;
51556;SDS011;38766;53.194;5.532;2024-01-11T05:30:54;39.88;;;20.65;;
51556;SDS011;38766;53.194;5.532;2024-01-11T05:33:20;38.42;;;19.88;;
51556;SDS011;38766;53.194;5.532;2024-01-11T05:35:45;31.75;;;19.20;;
51556;SDS011;38766;53.194;5.532;2024-01-11T05:38:11;37.17;;;21.27;;
51556;SDS011;38766;53.194;5.532;2024-01-11T05:40:37;37.90;;;19.73;;
51556;SDS011;38766;53.194;5.532;2024-01-11T05:43:02;34.80;;;19.50;;
51556;SDS011;38766;53.194;5.532;2024-01-11T05:45:28;36.38;;;19.98;;
51556;SDS011;38766;53.194;5.532;2024-01-11T05:47:54;36.55;;;18.65;;
51556;SDS011;38766;53.194;5.532;2024-01-11T05:50:19;34.22;;;19.25;;
51556;SDS011;38766;53.194;5.532;2024-01-11T05:52:45;37.53;;;20.60;;
51556;SDS011;38766;53.194;5.532;2024-01-11T05:55:11;36.63;;;20.52;;
51556;SDS011;38766;53.194;5.532;2024-01-11T05:57:36;37.05;;;19.60;;
51556;SDS011;38766;53.194;5.532;2024-01-11T06:00:02;38.80;;;19.80;;
51556;SDS011;38766;53.194;5.532;2024-01-11T06:02:29;34.95;;;18.60;;
51556;SDS011;38766;53.194;5.532;2024-01-11T06:04:56;37.05;;;19.23;;
51556;SDS011;38766;53.194;5.532;2024-01-11T06:07:22;37.25;;;19.80;;
51556;SDS011;38766;53.194;5.532;2024-01-11T06:09:47;38.80;;;20.30;;
51556;SDS011;38766;53.194;5.532;2024-01-11T06:12:13;35.55;;;19.02;;
51556;SDS011;38766;53.194;5.532;2024-01-11T06:14:39;36.63;;;20.20;;
51556;SDS011;38766;53.194;5.532;2024-01-11T06:17:04;38.25;;;20.15;;
51556;SDS011;38766;53.194;5.532;2024-01-11T06:19:30;39.17;;;20.33;;
51556;SDS011;38766;53.194;5.532;2024-01-11T06:21:56;38.95;;;20.23;;
51556;SDS011;38766;53.194;5.532;2024-01-11T06:24:21;38.67;;;20.00;;
51556;SDS011;38766;53.194;5.532;2024-01-11T06:26:47;36.55;;;19.42;;
51556;SDS011;38766;53.194;5.532;2024-01-11T06:29:12;40.30;;;20.17;;
51556;SDS011;38766;53.194;5.532;2024-01-11T06:31:38;34.90;;;19.67;;
51556;SDS011;38766;53.194;5.532;2024-01-11T06:34:04;37.53;;;20.40;;
51556;SDS011;38766;53.194;5.532;2024-01-11T06:36:29;34.35;;;20.00;;
51556;SDS011;38766;53.194;5.532;2024-01-11T06:38:55;36.58;;;19.23;;
51556;SDS011;38766;53.194;5.532;2024-01-11T06:41:21;38.10;;;20.00;;
51556;SDS011;38766;53.194;5.532;2024-01-11T06:43:46;36.05;;;19.90;;
51556;SDS011;38766;53.194;5.532;2024-01-11T06:46:12;41.22;;;19.27;;
51556;SDS011;38766;53.194;5.532;2024-01-11T06:48:37;35.50;;;19.23;;
51556;SDS011;38766;53.194;5.532;2024-01-11T06:51:03;33.22;;;19.13;;
51556;SDS011;38766;53.194;5.532;2024-01-11T06:53:29;39.70;;;20.55;;
51556;SDS011;38766;53.194;5.532;2024-01-11T06:55:54;39.45;;;20.85;;
51556;SDS011;38766;53.194;5.532;2024-01-11T06:58:20;40.42;;;21.15;;
51556;SDS011;38766;53.194;5.532;2024-01-11T07:00:49;34.97;;;19.63;;
51556;SDS011;38766;53.194;5.532;2024-01-11T07:03:15;39.55;;;20.13;;
51556;SDS011;38766;53.194;5.532;2024-01-11T07:05:42;37.08;;;20.55;;
51556;SDS011;38766;53.194;5.532;2024-01-11T07:08:07;41.72;;;21.50;;
51556;SDS011;38766;53.194;5.532;2024-01-11T07:10:33;40.97;;;22.70;;
51556;SDS011;38766;53.194;5.532;2024-01-11T07:12:59;45.47;;;23.80;;
51556;SDS011;38766;53.194;5.532;2024-01-11T07:15:24;42.92;;;23.55;;
51556;SDS011;38766;53.194;5.532;2024-01-11T07:17:50;43.20;;;23.48;;
51556;SDS011;38766;53.194;5.532;2024-01-11T07:20:15;40.13;;;21.92;;
51556;SDS011;38766;53.194;5.532;2024-01-11T07:22:43;40.80;;;22.02;;
51556;SDS011;38766;53.194;5.532;2024-01-11T07:25:09;42.65;;;23.33;;
51556;SDS011;38766;53.194;5.532;2024-01-11T07:27:34;36.83;;;21.45;;
51556;SDS011;38766;53.194;5.532;2024-01-11T07:30:01;39.05;;;21.83;;
51556;SDS011;38766;53.194;5.532;2024-01-11T07:32:27;37.80;;;21.48;;
51556;SDS011;38766;53.194;5.532;2024-01-11T07:34:53;36.80;;;20.10;;
51556;SDS011;38766;53.194;5.532;2024-01-11T07:37:19;39.28;;;21.92;;
51556;SDS011;38766;53.194;5.532;2024-01-11T07:39:45;35.78;;;19.38;;
51556;SDS011;38766;53.194;5.532;2024-01-11T07:42:10;32.80;;;18.88;;
51556;SDS011;38766;53.194;5.532;2024-01-11T07:44:36;38.17;;;20.45;;
51556;SDS011;38766;53.194;5.532;2024-01-11T07:47:02;35.22;;;19.10;;
51556;SDS011;38766;53.194;5.532;2024-01-11T07:49:28;31.17;;;17.88;;
51556;SDS011;38766;53.194;5.532;2024-01-11T07:51:53;32.67;;;18.27;;
51556;SDS011;38766;53.194;5.532;2024-01-11T07:54:19;32.17;;;17.38;;
51556;SDS011;38766;53.194;5.532;2024-01-11T07:56:45;32.60;;;18.15;;
51556;SDS011;38766;53.194;5.532;2024-01-11T07:59:10;30.73;;;18.20;;
51556;SDS011;38766;53.194;5.532;2024-01-11T08:01:39;30.88;;;16.88;;
51556;SDS011;38766;53.194;5.532;2024-01-11T08:04:05;30.42;;;17.52;;
51556;SDS011;38766;53.194;5.532;2024-01-11T08:06:31;31.05;;;17.25;;
51556;SDS011;38766;53.194;5.532;2024-01-11T08:08:57;31.05;;;17.77;;
51556;SDS011;38766;53.194;5.532;2024-01-11T08:11:25;33.30;;;17.58;;
51556;SDS011;38766;53.194;5.532;2024-01-11T08:13:50;35.55;;;17.25;;
51556;SDS011;38766;53.194;5.532;2024-01-11T08:16:18;31.38;;;17.88;;
51556;SDS011;38766;53.194;5.532;2024-01-11T08:18:44;33.75;;;18.95;;
51556;SDS011;38766;53.194;5.532;2024-01-11T08:21:10;37.72;;;20.52;;
51556;SDS011;38766;53.194;5.532;2024-01-11T08:23:37;35.08;;;19.20;;
51556;SDS011;38766;53.194;5.532;2024-01-11T08:26:14;33.55;;;19.20;;
51556;SDS011;38766;53.194;5.532;2024-01-11T08:28:39;33.45;;;19.58;;
51556;SDS011;38766;53.194;5.532;2024-01-11T08:31:06;39.53;;;21.13;;
51556;SDS011;38766;53.194;5.532;2024-01-11T08:33:32;43.90;;;21.52;;
51556;SDS011;38766;53.194;5.532;2024-01-11T08:35:58;45.80;;;22.85;;
51556;SDS011;38766;53.194;5.532;2024-01-11T08:38:23;50.60;;;24.10;;
51556;SDS011;38766;53.194;5.532;2024-01-11T08:40:49;60.00;;;34.42;;
51556;SDS011;38766;53.194;5.532;2024-01-11T08:43:15;45.90;;;25.30;;
51556;SDS011;38766;53.194;5.532;2024-01-11T08:45:41;47.05;;;23.50;;
51556;SDS011;38766;53.194;5.532;2024-01-11T08:48:08;49.72;;;26.90;;
51556;SDS011;38766;53.194;5.532;2024-01-11T08:50:34;44.03;;;22.55;;
51556;SDS011;38766;53.194;5.532;2024-01-11T08:53:00;41.67;;;22.95;;
51556;SDS011;38766;53.194;5.532;2024-01-11T08:55:26;41.08;;;22.30;;
51556;SDS011;38766;53.194;5.532;2024-01-11T08:57:51;43.70;;;23.08;;
51556;SDS011;38766;53.194;5.532;2024-01-11T09:00:17;40.75;;;23.00;;
51556;SDS011;38766;53.194;5.532;2024-01-11T09:02:43;40.72;;;21.38;;
51556;SDS011;38766;53.194;5.532;2024-01-11T09:05:10;35.95;;;20.13;;
51556;SDS011;38766;53.194;5.532;2024-01-11T09:07:36;38.42;;;21.02;;
51556;SDS011;38766;53.194;5.532;2024-01-11T09:10:02;36.85;;;20.48;;
51556;SDS011;38766;53.194;5.532;2024-01-11T09:12:28;36.28;;;20.52;;
51556;SDS011;38766;53.194;5.532;2024-01-11T09:14:54;34.83;;;19.05;;
51556;SDS011;38766;53.194;5.532;2024-01-11T09:17:20;33.90;;;18.05;;
51556;SDS011;38766;53.194;5.532;2024-01-11T09:19:46;32.22;;;18.13;;
51556;SDS011;38766;53.194;5.532;2024-01-11T09:22:12;31.17;;;17.75;;
51556;SDS011;38766;53.194;5.532;2024-01-11T09:24:37;29.85;;;16.80;;
51556;SDS011;38766;53.194;5.532;2024-01-11T09:27:03;44.78;;;20.60;;
51556;SDS011;38766;53.194;5.532;2024-01-11T09:29:29;33.67;;;19.38;;
51556;SDS011;38766;53.194;5.532;2024-01-11T09:31:55;37.78;;;17.58;;
51556;SDS011;38766;53.194;5.532;2024-01-11T09:34:20;29.35;;;16.23;;
51556;SDS011;38766;53.194;5.532;2024-01-11T09:36:46;27.48;;;15.80;;
51556;SDS011;38766;53.194;5.532;2024-01-11T09:39:11;27.58;;;15.82;;
51556;SDS011;38766;53.194;5.532;2024-01-11T09:41:41;30.48;;;16.13;;
51556;SDS011;38766;53.194;5.532;2024-01-11T09:44:12;29.08;;;13.98;;
51556;SDS011;38766;53.194;5.532;2024-01-11T09:46:39;24.52;;;15.52;;
51556;SDS011;38766;53.194;5.532;2024-01-11T09:49:04;24.88;;;14.55;;
51556;SDS011;38766;53.194;5.532;2024-01-11T09:51:32;23.13;;;14.52;;
51556;SDS011;38766;53.194;5.532;2024-01-11T09:54:02;27.95;;;15.32;;
51556;SDS011;38766;53.194;5.532;2024-01-11T09:56:28;23.60;;;14.57;;
51556;SDS011;38766;53.194;5.532;2024-01-11T09:58:54;25.13;;;14.98;;
51556;SDS011;38766;53.194;5.532;2024-01-11T10:01:19;26.77;;;14.77;;
51556;SDS011;38766;53.194;5.532;2024-01-11T10:03:46;23.60;;;13.13;;
51556;SDS011;38766;53.194;5.532;2024-01-11T10:06:12;21.48;;;14.10;;
51556;SDS011;38766;53.194;5.532;2024-01-11T10:08:40;22.17;;;13.20;;
51556;SDS011;38766;53.194;5.532;2024-01-11T10:11:06;21.90;;;12.85;;
51556;SDS011;38766;53.194;5.532;2024-01-11T10:13:32;19.48;;;12.38;;
51556;SDS011;38766;53.194;5.532;2024-01-11T10:16:10;20.13;;;11.63;;
51556;SDS011;38766;53.194;5.532;2024-01-11T10:18:40;19.85;;;11.48;;
51556;SDS011;38766;53.194;5.532;2024-01-11T10:21:06;18.00;;;11.85;;
51556;SDS011;38766;53.194;5.532;2024-01-11T10:23:34;21.27;;;12.38;;
51556;SDS011;38766;53.194;5.532;2024-01-11T10:26:01;15.55;;;7.70;;
51556;SDS011;38766;53.194;5.532;2024-01-11T10:28:27;11.88;;;5.80;;
51556;SDS011;38766;53.194;5.532;2024-01-11T10:30:53;10.45;;;4.93;;
51556;SDS011;38766;53.194;5.532;2024-01-11T10:33:22;7.38;;;3.95;;
51556;SDS011;38766;53.194;5.532;2024-01-11T10:35:49;9.15;;;4.18;;
51556;SDS011;38766;53.194;5.532;2024-01-11T10:38:15;4.40;;;3.13;;
51556;SDS011;38766;53.194;5.532;2024-01-11T10:40:41;5.55;;;3.28;;
51556;SDS011;38766;53.194;5.532;2024-01-11T10:43:10;5.97;;;2.40;;
51556;SDS011;38766;53.194;5.532;2024-01-11T10:45:37;3.92;;;2.05;;
51556;SDS011;38766;53.194;5.532;2024-01-11T10:48:15;6.00;;;1.95;;
51556;SDS011;38766;53.194;5.532;2024-01-11T10:50:45;7.13;;;2.30;;
51556;SDS011;38766;53.194;5.532;2024-01-11T10:55:58;4.85;;;1.92;;
51556;SDS011;38766;53.194;5.532;2024-01-11T10:58:26;10.88;;;2.60;;
51556;SDS011;38766;53.194;5.532;2024-01-11T11:00:52;9.10;;;3.20;;
51556;SDS011;38766;53.194;5.532;2024-01-11T11:03:22;9.77;;;4.10;;
51556;SDS011;38766;53.194;5.532;2024-01-11T11:05:50;10.52;;;4.53;;
51556;SDS011;38766;53.194;5.532;2024-01-11T11:08:18;12.23;;;5.45;;
51556;SDS011;38766;53.194;5.532;2024-01-11T11:10:45;8.65;;;3.22;;
51556;SDS011;38766;53.194;5.532;2024-01-11T11:13:14;5.43;;;2.60;;
51556;SDS011;38766;53.194;5.532;2024-01-11T11:15:45;9.70;;;2.97;;
51556;SDS011;38766;53.194;5.532;2024-01-11T11:18:14;7.13;;;2.58;;
51556;SDS011;38766;53.194;5.532;2024-01-11T11:20:41;6.30;;;2.33;;
51556;SDS011;38766;53.194;5.532;2024-01-11T11:23:08;7.00;;;2.35;;
51556;SDS011;38766;53.194;5.532;2024-01-11T11:25:40;11.40;;;2.50;;
51556;SDS011;38766;53.194;5.532;2024-01-11T11:28:07;26.15;;;14.43;;
51556;SDS011;38766;53.194;5.532;2024-01-11T11:30:33;16.80;;;7.60;;
51556;SDS011;38766;53.194;5.532;2024-01-11T11:35:42;16.17;;;2.78;;
51556;SDS011;38766;53.194;5.532;2024-01-11T11:38:08;17.88;;;3.80;;
51556;SDS011;38766;53.194;5.532;2024-01-11T11:40:36;16.77;;;3.33;;
51556;SDS011;38766;53.194;5.532;2024-01-11T11:43:05;9.63;;;2.85;;
51556;SDS011;38766;53.194;5.532;2024-01-11T11:45:31;16.27;;;3.55;;
51556;SDS011;38766;53.194;5.532;2024-01-11T11:47:57;13.90;;;2.78;;
51556;SDS011;38766;53.194;5.532;2024-01-11T11:50:24;19.60;;;4.07;;
51556;SDS011;38766;53.194;5.532;2024-01-11T11:52:55;17.33;;;4.18;;
51556;SDS011;38766;53.194;5.532;2024-01-11T11:55:22;19.83;;;3.33;;
51556;SDS011;38766;53.194;5.532;2024-01-11T11:57:52;17.23;;;4.53;;
51556;SDS011;38766;53.194;5.532;2024-01-11T12:00:18;27.90;;;6.15;;
51556;SDS011;38766;53.194;5.532;2024-01-11T12:02:48;20.55;;;5.18;;
51556;SDS011;38766;53.194;5.532;2024-01-11T12:05:16;26.25;;;6.03;;
51556;SDS011;38766;53.194;5.532;2024-01-11T12:07:43;22.55;;;4.07;;
51556;SDS011;38766;53.194;5.532;2024-01-11T12:10:09;18.00;;;4.00;;
51556;SDS011;38766;53.194;5.532;2024-01-11T12:12:35;24.33;;;4.03;;
51556;SDS011;38766;53.194;5.532;2024-01-11T12:15:02;18.92;;;4.45;;
51556;SDS011;38766;53.194;5.532;2024-01-11T12:17:29;21.63;;;3.95;;
51556;SDS011;38766;53.194;5.532;2024-01-11T12:19:55;25.48;;;5.85;;
51556;SDS011;38766;53.194;5.532;2024-01-11T12:22:20;24.75;;;4.68;;
51556;SDS011;38766;53.194;5.532;2024-01-11T12:24:46;22.40;;;4.60;;
51556;SDS011;38766;53.194;5.532;2024-01-11T12:27:12;17.63;;;3.95;;
51556;SDS011;38766;53.194;5.532;2024-01-11T12:29:41;22.92;;;4.68;;
51556;SDS011;38766;53.194;5.532;2024-01-11T12:32:07;29.67;;;5.13;;
51556;SDS011;38766;53.194;5.532;2024-01-11T12:34:36;28.45;;;5.10;;
51556;SDS011;38766;53.194;5.532;2024-01-11T12:37:02;24.25;;;5.07;;
51556;SDS011;38766;53.194;5.532;2024-01-11T12:39:30;25.85;;;6.10;;
51556;SDS011;38766;53.194;5.532;2024-01-11T12:41:56;22.35;;;4.32;;
51556;SDS011;38766;53.194;5.532;2024-01-11T12:44:22;27.88;;;5.65;;
51556;SDS011;38766;53.194;5.532;2024-01-11T12:46:49;29.63;;;6.47;;
51556;SDS011;38766;53.194;5.532;2024-01-11T12:49:16;28.23;;;4.15;;
51556;SDS011;38766;53.194;5.532;2024-01-11T12:51:41;29.10;;;5.53;;
51556;SDS011;38766;53.194;5.532;2024-01-11T12:54:13;29.77;;;4.97;;
51556;SDS011;38766;53.194;5.532;2024-01-11T12:56:42;32.97;;;4.43;;
51556;SDS011;38766;53.194;5.532;2024-01-11T12:59:08;25.20;;;5.10;;
51556;SDS011;38766;53.194;5.532;2024-01-11T13:01:36;29.17;;;5.00;;
51556;SDS011;38766;53.194;5.532;2024-01-11T13:04:03;34.13;;;5.10;;
51556;SDS011;38766;53.194;5.532;2024-01-11T13:06:32;34.33;;;5.97;;
51556;SDS011;38766;53.194;5.532;2024-01-11T13:09:00;30.88;;;4.90;;
51556;SDS011;38766;53.194;5.532;2024-01-11T13:11:26;21.20;;;4.38;;
51556;SDS011;38766;53.194;5.532;2024-01-11T13:13:53;27.98;;;4.47;;
51556;SDS011;38766;53.194;5.532;2024-01-11T13:16:19;25.30;;;4.55;;
51556;SDS011;38766;53.194;5.532;2024-01-11T13:18:45;31.20;;;5.50;;
51556;SDS011;38766;53.194;5.532;2024-01-11T13:21:11;32.17;;;5.30;;
51556;SDS011;38766;53.194;5.532;2024-01-11T13:23:37;26.83;;;4.57;;
51556;SDS011;38766;53.194;5.532;2024-01-11T13:26:04;22.63;;;5.10;;
51556;SDS011;38766;53.194;5.532;2024-01-11T13:28:31;29.83;;;5.18;;
51556;SDS011;38766;53.194;5.532;2024-01-11T13:30:57;33.65;;;5.20;;
51556;SDS011;38766;53.194;5.532;2024-01-11T13:33:22;23.92;;;4.68;;
51556;SDS011;38766;53.194;5.532;2024-01-11T13:35:48;34.90;;;6.32;;
51556;SDS011;38766;53.194;5.532;2024-01-11T13:38:14;30.98;;;5.10;;
51556;SDS011;38766;53.194;5.532;2024-01-11T13:40:40;28.50;;;4.75;;
51556;SDS011;38766;53.194;5.532;2024-01-11T13:43:08;32.72;;;5.85;;
51556;SDS011;38766;53.194;5.532;2024-01-11T13:45:34;32.67;;;5.28;;
51556;SDS011;38766;53.194;5.532;2024-01-11T13:48:01;27.02;;;5.00;;
51556;SDS011;38766;53.194;5.532;2024-01-11T13:50:30;28.35;;;5.53;;
51556;SDS011;38766;53.194;5.532;2024-01-11T13:52:56;38.45;;;5.78;;
51556;SDS011;38766;53.194;5.532;2024-01-11T13:55:21;29.92;;;5.22;;
51556;SDS011;38766;53.194;5.532;2024-01-11T13:57:48;31.73;;;4.75;;
51556;SDS011;38766;53.194;5.532;2024-01-11T14:00:17;31.42;;;5.07;;
51556;SDS011;38766;53.194;5.532;2024-01-11T14:02:44;36.90;;;6.25;;
51556;SDS011;38766;53.194;5.532;2024-01-11T14:05:11;37.72;;;9.18;;
51556;SDS011;38766;53.194;5.532;2024-01-11T14:07:42;30.38;;;6.28;;
51556;SDS011;38766;53.194;5.532;2024-01-11T14:10:10;31.63;;;5.93;;
51556;SDS011;38766;53.194;5.532;2024-01-11T14:12:37;27.42;;;6.90;;
51556;SDS011;38766;53.194;5.532;2024-01-11T14:15:03;36.10;;;10.20;;
51556;SDS011;38766;53.194;5.532;2024-01-11T14:17:31;26.73;;;6.00;;
51556;SDS011;38766;53.194;5.532;2024-01-11T14:19:58;27.17;;;5.53;;
51556;SDS011;38766;53.194;5.532;2024-01-11T14:22:28;30.17;;;7.82;;
51556;SDS011;38766;53.194;5.532;2024-01-11T14:24:54;25.15;;;6.90;;
51556;SDS011;38766;53.194;5.532;2024-01-11T14:27:20;30.42;;;5.43;;